Shenley AV, United Kingdom
Current Conditions -  °F | °C
As of 4:50 PM on Sunday 21 Dec 2014 (Local Time) from EGWU Reporting Station
Broken Clouds Broken Clouds  
Wind Chill: 50°   Ceiling: 2600
Heat Index: 50°   Visibility: 6mi
Dew Point: 43°   Wind: 15mph
Humidity: 76%   Direction: 250°WSW
Pressure: 30.21"   Gusts: NA
Location:  51.69°N, 0.28°W
Report Text: EGWU 211650Z 25013KT 9999 SCT020 BKN026 10/06 Q1023 WHT NOSIG
Loading
Personal Weather Stations






























Interactive Weather Map New forecast layout! Learn more

10-Day Weather Forecast

Advertisements
Track Severe Weather on mobile